createdAt,value
2023-05-08T00:02:19.013Z,97908.80
2023-05-08T00:04:47.129Z,97908.98
2023-05-08T00:07:15.254Z,97908.83
2023-05-08T00:09:43.227Z,97908.39
2023-05-08T00:12:11.298Z,97914.98
2023-05-08T00:14:39.200Z,97916.84
2023-05-08T00:17:07.271Z,97915.73
2023-05-08T00:19:35.390Z,97916.15
2023-05-08T00:22:03.372Z,97920.05
2023-05-08T00:24:31.335Z,97919.66
2023-05-08T00:26:59.363Z,97918.70
2023-05-08T00:29:27.670Z,97921.02
2023-05-08T00:31:56.417Z,97924.10
2023-05-08T00:34:24.538Z,97923.15
2023-05-08T00:36:53.016Z,97923.13
2023-05-08T00:39:21.086Z,97921.64
2023-05-08T00:41:49.032Z,97924.13
2023-05-08T00:44:17.029Z,97921.02
2023-05-08T00:46:46.823Z,97913.86
2023-05-08T00:49:16.245Z,97908.21
2023-05-08T00:51:46.468Z,97910.70
2023-05-08T00:54:15.159Z,97915.70
2023-05-08T00:56:44.145Z,97917.41
2023-05-08T00:59:14.644Z,97914.43
2023-05-08T01:01:44.269Z,97916.10
2023-05-08T01:04:12.317Z,97917.84
2023-05-08T01:06:40.328Z,97920.14
2023-05-08T01:09:08.203Z,97918.86
2023-05-08T01:11:52.773Z,97921.73
2023-05-08T01:14:30.040Z,97920.86
2023-05-08T01:17:20.129Z,97922.21
2023-05-08T01:19:48.099Z,97923.41
2023-05-08T01:22:25.292Z,97924.98
2023-05-08T01:24:59.196Z,97925.88
2023-05-08T01:27:40.784Z,97923.81
2023-05-08T01:30:14.232Z,97925.09
2023-05-08T01:32:46.981Z,97926.85
2023-05-08T01:35:21.498Z,97924.77
2023-05-08T01:38:10.980Z,97920.20
2023-05-08T01:40:53.936Z,97912.05
2023-05-08T01:43:57.171Z,97905.56
2023-05-08T01:46:28.529Z,97899.60
2023-05-08T01:49:10.907Z,97903.34
2023-05-08T01:51:46.508Z,97914.92
2023-05-08T01:54:26.943Z,97921.52
2023-05-08T01:56:58.151Z,97920.55
2023-05-08T01:59:28.326Z,97917.45
2023-05-08T02:01:58.878Z,97914.91
2023-05-08T02:04:28.698Z,97913.14
2023-05-08T02:06:59.468Z,97915.84
2023-05-08T02:09:29.715Z,97915.00
2023-05-08T02:12:00.909Z,97912.90
2023-05-08T02:14:32.091Z,97910.64
2023-05-08T02:17:02.627Z,97908.54
2023-05-08T02:19:33.606Z,97907.61
2023-05-08T02:22:02.764Z,97903.20
2023-05-08T02:24:34.422Z,97901.55
2023-05-08T02:27:02.752Z,97901.91
2023-05-08T02:29:31.795Z,97899.86
2023-05-08T02:32:02.712Z,97895.70
2023-05-08T02:34:31.936Z,97895.88
2023-05-08T02:37:01.415Z,97900.48
2023-05-08T02:39:32.056Z,97903.95
2023-05-08T02:42:00.902Z,97907.38
2023-05-08T02:44:30.822Z,97905.27
2023-05-08T02:47:12.559Z,97908.95
2023-05-08T02:49:53.637Z,97909.43
2023-05-08T02:52:29.717Z,97918.42
2023-05-08T02:55:00.750Z,97922.58
2023-05-08T02:57:39.973Z,97925.41
2023-05-08T03:00:32.928Z,97927.94
2023-05-08T03:03:34.298Z,97925.65
2023-05-08T03:06:09.005Z,97914.55
2023-05-08T03:08:38.404Z,97901.70
2023-05-08T03:11:15.292Z,97900.52
2023-05-08T03:13:46.123Z,97903.20
2023-05-08T03:16:22.260Z,97898.58
2023-05-08T03:18:55.055Z,97880.90
2023-05-08T03:21:26.937Z,97862.84
2023-05-08T03:23:57.399Z,97861.04
2023-05-08T03:26:26.574Z,97864.39
2023-05-08T03:28:56.580Z,97870.77
2023-05-08T03:31:32.256Z,97877.20
2023-05-08T03:34:01.210Z,97881.50
2023-05-08T03:36:30.901Z,97880.96
2023-05-08T03:39:00.525Z,97887.10
2023-05-08T03:41:29.444Z,97883.58
2023-05-08T03:43:58.818Z,97882.11
2023-05-08T03:46:26.903Z,97885.16
2023-05-08T03:48:55.694Z,97883.73
2023-05-08T03:51:24.295Z,97885.33
2023-05-08T03:53:52.621Z,97884.79
2023-05-08T03:56:21.130Z,97884.55
2023-05-08T03:59:39.600Z,97889.43
2023-05-08T04:02:28.657Z,97893.45
2023-05-08T04:05:10.861Z,97894.89
2023-05-08T04:07:47.740Z,97895.23
2023-05-08T04:10:37.837Z,97900.35
2023-05-08T04:13:05.970Z,97904.96
2023-05-08T04:15:48.811Z,97904.66
2023-05-08T04:18:22.732Z,97904.99
2023-05-08T04:20:54.688Z,97901.42
2023-05-08T04:23:23.890Z,97898.05
2023-05-08T04:25:53.902Z,97900.92
2023-05-08T04:28:23.003Z,97902.45
2023-05-08T04:30:52.079Z,97908.48
2023-05-08T04:33:20.123Z,97909.34
2023-05-08T04:35:49.030Z,97910.05
2023-05-08T04:38:17.447Z,97910.35
2023-05-08T04:40:45.751Z,97911.11
2023-05-08T04:43:13.931Z,97911.84
2023-05-08T04:45:42.577Z,97914.52
2023-05-08T04:48:10.858Z,97916.53
2023-05-08T04:50:39.028Z,97917.36
2023-05-08T04:53:07.098Z,97918.13
2023-05-08T04:55:36.089Z,97918.66
2023-05-08T04:58:04.234Z,97917.06
2023-05-08T05:00:32.353Z,97919.12
2023-05-08T05:03:00.690Z,97914.23
2023-05-08T05:05:28.784Z,97913.77
2023-05-08T05:07:57.269Z,97913.63
2023-05-08T05:10:25.910Z,97914.83
2023-05-08T05:12:54.277Z,97913.23
2023-05-08T05:15:23.015Z,97918.57
2023-05-08T05:17:51.005Z,97921.50
2023-05-08T05:20:19.426Z,97927.00
2023-05-08T05:22:47.604Z,97933.45
2023-05-08T05:25:16.145Z,97935.60
2023-05-08T05:27:44.704Z,97933.73
2023-05-08T05:30:13.623Z,97931.46
2023-05-08T05:32:42.476Z,97929.58
2023-05-08T05:35:12.002Z,97930.54
2023-05-08T05:37:40.684Z,97930.25
2023-05-08T05:40:09.647Z,97930.77
2023-05-08T05:42:39.216Z,97928.80
2023-05-08T05:45:08.183Z,97926.29
2023-05-08T05:47:36.481Z,97926.23
2023-05-08T05:50:06.223Z,97926.30
2023-05-08T05:52:34.336Z,97929.58
2023-05-08T05:55:02.399Z,97929.53
2023-05-08T05:57:30.487Z,97931.13
2023-05-08T05:59:59.748Z,97933.57
2023-05-08T06:02:28.448Z,97931.14
2023-05-08T06:04:57.152Z,97931.02
2023-05-08T06:07:25.042Z,97928.17
2023-05-08T06:09:53.400Z,97925.23
2023-05-08T06:12:21.671Z,97924.44
2023-05-08T06:14:52.220Z,97927.29
2023-05-08T06:17:20.687Z,97926.27
2023-05-08T06:19:54.288Z,97924.96
2023-05-08T06:22:23.478Z,97921.77
2023-05-08T06:24:55.833Z,97922.48
2023-05-08T06:27:23.958Z,97927.30
2023-05-08T06:29:53.507Z,97928.63
2023-05-08T06:32:22.493Z,97930.36
2023-05-08T06:34:50.776Z,97930.10
2023-05-08T06:37:18.883Z,97929.52
2023-05-08T06:39:48.940Z,97929.20
2023-05-08T06:42:18.610Z,97932.57
2023-05-08T06:44:47.358Z,97935.11
2023-05-08T06:47:15.678Z,97934.61
2023-05-08T06:49:43.738Z,97931.85
2023-05-08T06:52:11.813Z,97936.95
2023-05-08T06:54:41.327Z,97937.12
2023-05-08T06:57:09.600Z,97935.38
2023-05-08T06:59:38.429Z,97936.79
2023-05-08T07:02:06.903Z,97935.15
2023-05-08T07:04:35.706Z,97932.65
2023-05-08T07:07:03.834Z,97940.20
2023-05-08T07:09:31.950Z,97944.08
2023-05-08T07:12:00.278Z,97941.84
2023-05-08T07:14:28.778Z,97944.83
2023-05-08T07:16:56.952Z,97947.44
2023-05-08T07:19:25.361Z,97945.13
2023-05-08T07:21:53.531Z,97946.89
2023-05-08T07:24:21.425Z,97951.93
2023-05-08T07:26:49.637Z,97953.65
2023-05-08T07:29:17.497Z,97952.70
2023-05-08T07:31:46.644Z,97951.31
2023-05-08T07:34:15.500Z,97952.39
2023-05-08T07:36:43.763Z,97952.45
2023-05-08T07:39:11.839Z,97952.23
2023-05-08T07:41:41.124Z,97950.92
2023-05-08T07:44:09.664Z,97949.16
2023-05-08T07:46:38.072Z,97951.59
2023-05-08T07:49:06.494Z,97947.73
2023-05-08T07:51:34.645Z,97946.65
2023-05-08T07:54:02.825Z,97946.95
2023-05-08T07:56:31.403Z,97944.63
2023-05-08T07:58:59.490Z,97943.74
2023-05-08T08:01:27.645Z,97945.23
2023-05-08T08:03:56.320Z,97944.91
2023-05-08T08:06:24.279Z,97949.67
2023-05-08T08:08:52.385Z,97950.34
2023-05-08T08:11:20.474Z,97951.60
2023-05-08T08:13:48.530Z,97948.70
2023-05-08T08:16:16.797Z,97943.32
2023-05-08T08:18:45.085Z,97942.09
2023-05-08T08:21:13.157Z,97943.70
2023-05-08T08:23:41.359Z,97947.79
2023-05-08T08:26:09.291Z,97942.63
2023-05-08T08:28:37.773Z,97946.61
2023-05-08T08:31:06.102Z,97945.52
2023-05-08T08:33:34.220Z,97945.22
2023-05-08T08:36:02.296Z,97944.79
2023-05-08T08:38:30.488Z,97944.81
2023-05-08T08:40:58.514Z,97941.09
2023-05-08T08:43:27.128Z,97937.48
2023-05-08T08:45:55.357Z,97936.74
2023-05-08T08:48:28.696Z,97933.58
2023-05-08T08:51:03.718Z,97933.69
2023-05-08T08:53:37.959Z,97933.64
2023-05-08T08:56:09.528Z,97933.63
2023-05-08T08:58:48.021Z,97925.53
2023-05-08T09:01:18.459Z,97924.21
2023-05-08T09:03:49.040Z,97922.73
2023-05-08T09:06:19.721Z,97917.53
2023-05-08T09:08:48.670Z,97916.42
2023-05-08T09:11:16.666Z,97915.13
2023-05-08T09:13:44.625Z,97915.84
2023-05-08T09:16:12.709Z,97916.27
2023-05-08T09:18:41.286Z,97914.23
2023-05-08T09:21:09.894Z,97911.70
2023-05-08T09:23:38.254Z,97915.23
2023-05-08T09:26:06.433Z,97914.17
2023-05-08T09:28:34.505Z,97917.54
2023-05-08T09:31:02.685Z,97919.27
2023-05-08T09:33:30.821Z,97917.84
2023-05-08T09:35:58.784Z,97915.38
2023-05-08T09:38:36.179Z,97915.32
2023-05-08T09:41:08.886Z,97913.79
2023-05-08T09:43:38.299Z,97910.23
2023-05-08T09:46:26.993Z,97909.02
2023-05-08T09:48:58.260Z,97905.83
2023-05-08T09:51:28.275Z,97903.70
2023-05-08T09:53:59.052Z,97897.28
2023-05-08T09:56:34.597Z,97893.96
2023-05-08T09:59:04.691Z,97889.11
2023-05-08T10:01:35.868Z,97884.96
2023-05-08T10:04:06.188Z,97886.80
2023-05-08T10:06:36.595Z,97884.02
2023-05-08T10:09:09.674Z,97881.19
2023-05-08T10:11:41.662Z,97884.42
2023-05-08T10:14:09.990Z,97884.59
2023-05-08T10:16:46.266Z,97882.53
2023-05-08T10:19:19.192Z,97879.29
2023-05-08T10:21:50.060Z,97877.30
2023-05-08T10:24:20.593Z,97876.23
2023-05-08T10:27:07.401Z,97872.54
2023-05-08T10:29:45.132Z,97869.52
2023-05-08T10:32:20.413Z,97872.05
2023-05-08T10:35:00.081Z,97872.89
2023-05-08T10:37:30.388Z,97873.25
2023-05-08T10:39:58.815Z,97875.00
2023-05-08T10:42:28.011Z,97875.26
2023-05-08T10:44:56.604Z,97882.38
2023-05-08T10:47:49.705Z,97879.35
2023-05-08T10:50:17.864Z,97879.15
2023-05-08T10:53:05.705Z,97874.98
2023-05-08T10:55:39.962Z,97874.91
2023-05-08T10:58:28.522Z,97877.55
2023-05-08T11:01:07.885Z,97875.91
2023-05-08T11:03:42.947Z,97870.23
2023-05-08T11:06:11.842Z,97868.73
2023-05-08T11:08:48.705Z,97868.35
2023-05-08T11:11:33.605Z,97868.85
2023-05-08T11:14:08.040Z,97872.30
2023-05-08T11:17:01.832Z,97870.48
2023-05-08T11:19:29.955Z,97870.04
2023-05-08T11:22:23.526Z,97873.58
2023-05-08T11:25:10.345Z,97877.16
2023-05-08T11:27:48.385Z,97876.41
2023-05-08T11:30:36.541Z,97876.86
2023-05-08T11:33:14.730Z,97872.92
2023-05-08T11:35:56.423Z,97862.64
2023-05-08T11:38:36.520Z,97863.46
2023-05-08T11:41:24.665Z,97870.86
2023-05-08T11:43:55.503Z,97870.06
2023-05-08T11:46:23.736Z,97874.14
2023-05-08T11:49:00.394Z,97873.28
2023-05-08T11:51:33.153Z,97869.98
2023-05-08T11:54:01.727Z,97868.19
2023-05-08T11:56:31.440Z,97870.77
2023-05-08T11:59:04.561Z,97876.89
2023-05-08T12:01:33.227Z,97875.89
2023-05-08T12:04:06.418Z,97879.21
2023-05-08T12:06:36.018Z,97875.73
2023-05-08T12:09:10.543Z,97875.77
2023-05-08T12:11:39.392Z,97872.29
2023-05-08T12:14:07.597Z,97885.04
2023-05-08T12:16:38.803Z,97878.19
2023-05-08T12:19:12.240Z,97876.11
2023-05-08T12:21:48.105Z,97878.52
2023-05-08T12:24:22.609Z,97879.83
2023-05-08T12:26:54.871Z,97878.12
2023-05-08T12:29:23.716Z,97878.03
2023-05-08T12:31:52.823Z,97878.71
2023-05-08T12:34:21.764Z,97885.23
2023-05-08T12:37:01.174Z,97887.27
2023-05-08T12:39:29.291Z,97888.39
2023-05-08T12:41:57.982Z,97893.52
2023-05-08T12:44:28.374Z,97896.04
2023-05-08T12:46:57.591Z,97902.30
2023-05-08T12:49:31.094Z,97903.34
2023-05-08T12:52:02.861Z,97907.15
2023-05-08T12:54:35.023Z,97914.59
2023-05-08T12:57:10.102Z,97917.68
2023-05-08T12:59:38.260Z,97918.71
2023-05-08T13:02:16.927Z,97918.48
2023-05-08T13:04:46.742Z,97923.31
2023-05-08T13:07:15.157Z,97924.95
2023-05-08T13:09:57.377Z,97926.38
2023-05-08T13:12:25.925Z,97928.80
2023-05-08T13:14:53.956Z,97928.36
2023-05-08T13:17:22.071Z,97930.92
2023-05-08T13:19:50.194Z,97930.42
2023-05-08T13:22:18.111Z,97936.41
2023-05-08T13:24:46.498Z,97942.67
2023-05-08T13:27:14.883Z,97946.48
2023-05-08T13:29:42.941Z,97945.78
2023-05-08T13:32:11.185Z,97952.28
2023-05-08T13:34:44.300Z,97962.12
2023-05-08T13:37:18.184Z,97965.38
2023-05-08T13:39:46.831Z,97976.84
2023-05-08T13:42:14.788Z,97994.47
2023-05-08T13:44:43.876Z,98001.27
2023-05-08T13:47:12.033Z,98000.71
2023-05-08T13:49:40.110Z,98000.00
2023-05-08T13:52:08.128Z,98003.59
2023-05-08T13:54:36.250Z,98010.17
2023-05-08T13:57:04.449Z,98019.65
2023-05-08T13:59:32.803Z,98027.32
2023-05-08T14:02:01.202Z,98031.34
2023-05-08T14:04:29.314Z,98041.10
2023-05-08T14:06:57.436Z,98039.93
2023-05-08T14:09:25.437Z,98045.13
2023-05-08T14:11:53.380Z,98051.60
2023-05-08T14:14:21.565Z,98059.31
2023-05-08T14:16:51.090Z,98062.35
2023-05-08T14:19:19.334Z,98069.52
2023-05-08T14:21:47.338Z,98071.17
2023-05-08T14:24:15.470Z,98069.06
2023-05-08T14:26:44.841Z,98070.05
2023-05-08T14:29:13.253Z,98076.23
2023-05-08T14:31:41.589Z,98089.12
2023-05-08T14:34:09.908Z,98092.52
2023-05-08T14:36:38.080Z,98097.90
2023-05-08T14:39:06.368Z,98101.24
2023-05-08T14:41:35.048Z,98113.42
2023-05-08T14:44:03.123Z,98121.36
2023-05-08T14:46:31.407Z,98129.13
2023-05-08T14:48:59.585Z,98133.32
2023-05-08T14:51:28.351Z,98131.70
2023-05-08T14:53:57.248Z,98134.80
2023-05-08T14:56:26.381Z,98135.81
2023-05-08T14:58:55.556Z,98140.11
2023-05-08T15:01:23.624Z,98148.75
2023-05-08T15:03:53.444Z,98154.15
2023-05-08T15:06:23.491Z,98152.19
2023-05-08T15:08:52.126Z,98158.70
2023-05-08T15:11:20.197Z,98166.70
2023-05-08T15:13:48.306Z,98170.20
2023-05-08T15:16:16.568Z,98177.66
2023-05-08T15:18:44.832Z,98179.81
2023-05-08T15:21:12.903Z,98179.48
2023-05-08T15:23:40.970Z,98175.94
2023-05-08T15:26:09.037Z,98178.79
2023-05-08T15:28:37.314Z,98184.34
2023-05-08T15:31:05.405Z,98189.36
2023-05-08T15:33:33.563Z,98199.84
2023-05-08T15:36:01.484Z,98197.67
2023-05-08T15:38:29.368Z,98195.34
2023-05-08T15:40:57.366Z,98190.90
2023-05-08T15:43:25.392Z,98197.35
2023-05-08T15:45:53.336Z,98198.23
2023-05-08T15:48:21.595Z,98202.78
2023-05-08T15:50:49.567Z,98205.38
2023-05-08T15:53:17.470Z,98204.75
2023-05-08T15:55:45.511Z,98207.09
2023-05-08T15:58:13.665Z,98207.52
2023-05-08T16:00:45.280Z,98208.76
2023-05-08T16:03:13.828Z,98214.00
2023-05-08T16:05:42.305Z,98215.83
2023-05-08T16:08:12.988Z,98216.48
2023-05-08T16:10:41.988Z,98221.09
2023-05-08T16:13:10.232Z,98229.91
2023-05-08T16:15:38.661Z,98234.66
2023-05-08T16:18:07.184Z,98239.06
2023-05-08T16:20:36.204Z,98235.93
2023-05-08T16:23:04.563Z,98236.02
2023-05-08T16:25:32.709Z,98239.27
2023-05-08T16:28:00.929Z,98243.14
2023-05-08T16:30:29.279Z,98242.11
2023-05-08T16:32:57.607Z,98243.67
2023-05-08T16:35:26.129Z,98240.32
2023-05-08T16:37:54.120Z,98240.48
2023-05-08T16:40:22.253Z,98246.64
2023-05-08T16:42:51.110Z,98245.79
2023-05-08T16:45:19.194Z,98252.20
2023-05-08T16:47:47.224Z,98257.94
2023-05-08T16:50:15.574Z,98261.05
2023-05-08T16:52:43.647Z,98264.84
2023-05-08T16:55:11.917Z,98267.90
2023-05-08T16:57:40.062Z,98271.42
2023-05-08T17:00:08.787Z,98271.34
2023-05-08T17:02:37.083Z,98276.77
2023-05-08T17:05:05.953Z,98274.88
2023-05-08T17:07:33.912Z,98279.10
2023-05-08T17:10:01.963Z,98281.61
2023-05-08T17:12:30.154Z,98287.14
2023-05-08T17:14:58.140Z,98289.77
2023-05-08T17:17:26.312Z,98296.17
2023-05-08T17:19:54.294Z,98302.82
2023-05-08T17:22:22.199Z,98309.43
2023-05-08T17:24:50.345Z,98313.92
2023-05-08T17:27:19.489Z,98319.13
2023-05-08T17:29:47.504Z,98318.02
2023-05-08T17:32:15.607Z,98320.91
2023-05-08T17:34:43.837Z,98325.00
2023-05-08T17:37:11.978Z,98330.34
2023-05-08T17:39:40.192Z,98328.96
2023-05-08T17:42:08.259Z,98330.88
2023-05-08T17:44:37.034Z,98329.56
2023-05-08T17:47:05.193Z,98333.19
2023-05-08T17:49:33.284Z,98334.34
2023-05-08T17:52:01.352Z,98338.67
2023-05-08T17:54:29.429Z,98341.85
2023-05-08T17:56:58.609Z,98347.09
2023-05-08T17:59:26.794Z,98349.60
2023-05-08T18:01:54.776Z,98351.35
2023-05-08T18:04:22.736Z,98355.23
2023-05-08T18:06:51.817Z,98359.42
2023-05-08T18:09:20.822Z,98364.84
2023-05-08T18:11:48.908Z,98367.73
2023-05-08T18:14:17.167Z,98369.02
2023-05-08T18:16:45.350Z,98374.05
2023-05-08T18:19:13.544Z,98382.27
2023-05-08T18:21:41.698Z,98386.15
2023-05-08T18:24:09.770Z,98389.30
2023-05-08T18:26:38.357Z,98388.08
2023-05-08T18:29:06.736Z,98393.02
2023-05-08T18:31:34.755Z,98399.94
2023-05-08T18:34:02.975Z,98402.71
2023-05-08T18:36:32.073Z,98401.93
2023-05-08T18:39:00.271Z,98411.25
2023-05-08T18:41:28.426Z,98413.69
2023-05-08T18:43:56.498Z,98419.88
2023-05-08T18:46:24.614Z,98423.61
2023-05-08T18:48:52.738Z,98429.83
2023-05-08T18:51:20.916Z,98434.29
2023-05-08T18:53:48.963Z,98435.55
2023-05-08T18:56:17.162Z,98439.88
2023-05-08T18:58:47.975Z,98443.85
2023-05-08T19:01:20.149Z,98449.34
2023-05-08T19:03:48.538Z,98451.23
2023-05-08T19:06:17.127Z,98457.42
2023-05-08T19:08:45.199Z,98456.00
2023-05-08T19:11:13.298Z,98455.06
2023-05-08T19:13:41.553Z,98462.11
2023-05-08T19:16:09.598Z,98463.16
2023-05-08T19:18:37.741Z,98466.50
2023-05-08T19:21:06.794Z,98468.45
2023-05-08T19:23:34.808Z,98471.43
2023-05-08T19:26:02.753Z,98473.63
2023-05-08T19:28:30.896Z,98477.84
2023-05-08T19:30:59.028Z,98481.03
2023-05-08T19:33:26.940Z,98481.11
2023-05-08T19:35:54.908Z,98481.70
2023-05-08T19:38:22.987Z,98487.13
2023-05-08T19:40:57.076Z,98493.45
2023-05-08T19:43:26.788Z,98496.16
2023-05-08T19:45:56.188Z,98498.47
2023-05-08T19:48:24.561Z,98498.88
2023-05-08T19:50:54.871Z,98496.08
2023-05-08T19:53:24.131Z,98497.14
2023-05-08T19:55:52.110Z,98500.02
2023-05-08T19:58:20.150Z,98496.60
2023-05-08T20:03:20.050Z,98502.02
2023-05-08T20:05:48.339Z,98503.64
2023-05-08T20:08:16.849Z,98502.30
2023-05-08T20:10:49.082Z,98498.67
2023-05-08T20:13:18.396Z,98500.05
2023-05-08T20:15:46.970Z,98505.77
2023-05-08T20:18:15.267Z,98506.10
2023-05-08T20:20:45.199Z,98508.55
2023-05-08T20:23:13.375Z,98507.33
2023-05-08T20:25:46.146Z,98511.73
2023-05-08T20:28:22.404Z,98515.80
2023-05-08T20:30:51.194Z,98521.29
2023-05-08T20:33:19.486Z,98522.44
2023-05-08T20:35:47.709Z,98525.89
2023-05-08T20:38:16.329Z,98527.71
2023-05-08T20:40:44.724Z,98528.46
2023-05-08T20:43:12.985Z,98531.69
2023-05-08T20:45:41.102Z,98535.98
2023-05-08T20:48:09.216Z,98535.19
2023-05-08T20:50:37.207Z,98530.93
2023-05-08T20:53:05.279Z,98528.05
2023-05-08T20:55:33.493Z,98528.77
2023-05-08T20:58:03.738Z,98530.02
2023-05-08T21:00:31.915Z,98527.16
2023-05-08T21:03:00.047Z,98526.15
2023-05-08T21:05:28.408Z,98526.83
2023-05-08T21:08:00.225Z,98526.81
2023-05-08T21:10:30.785Z,98525.55
2023-05-08T21:12:59.203Z,98525.95
2023-05-08T21:15:27.559Z,98528.52
2023-05-08T21:17:57.095Z,98532.98
2023-05-08T21:20:25.331Z,98531.46
2023-05-08T21:22:53.231Z,98533.03
2023-05-08T21:25:22.113Z,98534.64
2023-05-08T21:27:50.156Z,98534.98
2023-05-08T21:30:18.314Z,98539.09
2023-05-08T21:32:46.761Z,98539.05
2023-05-08T21:35:16.014Z,98537.79
2023-05-08T21:37:44.561Z,98536.11
2023-05-08T21:40:12.784Z,98541.12
2023-05-08T21:42:41.257Z,98539.77
2023-05-08T21:45:10.052Z,98537.71
2023-05-08T21:47:38.148Z,98538.63
2023-05-08T21:50:07.268Z,98540.93
2023-05-08T21:52:35.601Z,98537.15
2023-05-08T21:55:08.576Z,98539.56
2023-05-08T21:57:36.742Z,98541.66
2023-05-08T22:00:07.113Z,98542.38
2023-05-08T22:02:35.849Z,98539.70
2023-05-08T22:05:04.243Z,98534.97
2023-05-08T22:07:32.213Z,98535.33
2023-05-08T22:10:00.288Z,98537.08
2023-05-08T22:12:28.278Z,98537.05
2023-05-08T22:14:56.221Z,98539.27
2023-05-08T22:17:24.232Z,98536.55
2023-05-08T22:19:52.159Z,98531.52
2023-05-08T22:22:20.131Z,98531.80
2023-05-08T22:24:48.154Z,98532.67
2023-05-08T22:27:16.219Z,98530.54
2023-05-08T22:29:44.229Z,98528.58
2023-05-08T22:32:14.083Z,98529.33
2023-05-08T22:34:42.234Z,98536.29
2023-05-08T22:37:10.189Z,98540.52
2023-05-08T22:39:38.169Z,98539.98
2023-05-08T22:42:06.396Z,98542.02
2023-05-08T22:44:35.363Z,98547.08
2023-05-08T22:47:03.572Z,98546.20
2023-05-08T22:49:32.100Z,98548.33
2023-05-08T22:52:00.266Z,98546.85
2023-05-08T22:54:28.239Z,98544.01
2023-05-08T22:56:56.307Z,98541.61
2023-05-08T22:59:25.832Z,98539.88
2023-05-08T23:01:53.896Z,98543.65
2023-05-08T23:04:22.472Z,98546.90
2023-05-08T23:06:50.617Z,98547.02
2023-05-08T23:09:18.733Z,98548.49
2023-05-08T23:11:47.608Z,98548.73
2023-05-08T23:14:16.193Z,98548.30
2023-05-08T23:16:44.311Z,98545.20
2023-05-08T23:19:12.331Z,98544.89
2023-05-08T23:21:40.402Z,98544.88
2023-05-08T23:24:08.399Z,98545.27
2023-05-08T23:26:36.451Z,98543.10
2023-05-08T23:29:04.403Z,98544.25
2023-05-08T23:31:32.534Z,98545.68
2023-05-08T23:34:00.777Z,98546.58
2023-05-08T23:36:28.687Z,98546.85
2023-05-08T23:38:56.701Z,98539.61
2023-05-08T23:41:26.185Z,98536.53
2023-05-08T23:43:54.896Z,98538.10
2023-05-08T23:46:22.881Z,98535.52
2023-05-08T23:48:50.861Z,98536.42
2023-05-08T23:51:18.870Z,98538.27
2023-05-08T23:53:47.180Z,98540.98
2023-05-08T23:56:15.112Z,98542.09
2023-05-08T23:58:43.121Z,98538.75
